sensor_id;sensor_type;location;lat;lon;timestamp;P1;durP1;ratioP1;P2;durP2;ratioP2
55989;SDS011;41875;55.806;38.082;2022-10-16T00:01:46;34.80;;;15.18;;
55989;SDS011;41875;55.806;38.082;2022-10-16T00:04:14;31.90;;;16.38;;
55989;SDS011;41875;55.806;38.082;2022-10-16T00:06:43;31.02;;;15.25;;
55989;SDS011;41875;55.806;38.082;2022-10-16T00:11:40;37.38;;;16.65;;
55989;SDS011;41875;55.806;38.082;2022-10-16T00:14:10;30.33;;;15.48;;
55989;SDS011;41875;55.806;38.082;2022-10-16T00:16:41;38.92;;;17.60;;
55989;SDS011;41875;55.806;38.082;2022-10-16T00:19:10;34.65;;;16.92;;
55989;SDS011;41875;55.806;38.082;2022-10-16T00:21:39;36.53;;;16.23;;
55989;SDS011;41875;55.806;38.082;2022-10-16T00:24:26;32.13;;;17.20;;
55989;SDS011;41875;55.806;38.082;2022-10-16T00:26:57;31.13;;;17.00;;
55989;SDS011;41875;55.806;38.082;2022-10-16T00:29:26;38.72;;;17.80;;
55989;SDS011;41875;55.806;38.082;2022-10-16T00:31:56;31.58;;;17.00;;
55989;SDS011;41875;55.806;38.082;2022-10-16T00:34:25;31.45;;;17.30;;
55989;SDS011;41875;55.806;38.082;2022-10-16T00:36:53;34.17;;;17.33;;
55989;SDS011;41875;55.806;38.082;2022-10-16T00:39:21;33.20;;;16.95;;
55989;SDS011;41875;55.806;38.082;2022-10-16T00:41:51;39.38;;;17.42;;
55989;SDS011;41875;55.806;38.082;2022-10-16T00:47:15;33.33;;;15.43;;
55989;SDS011;41875;55.806;38.082;2022-10-16T00:49:47;35.15;;;17.65;;
55989;SDS011;41875;55.806;38.082;2022-10-16T00:52:17;35.33;;;17.92;;
55989;SDS011;41875;55.806;38.082;2022-10-16T00:54:47;35.08;;;16.08;;
55989;SDS011;41875;55.806;38.082;2022-10-16T00:57:17;30.55;;;16.30;;
55989;SDS011;41875;55.806;38.082;2022-10-16T00:59:48;29.13;;;15.73;;
55989;SDS011;41875;55.806;38.082;2022-10-16T01:02:16;29.70;;;15.95;;
55989;SDS011;41875;55.806;38.082;2022-10-16T01:04:46;28.17;;;14.90;;
55989;SDS011;41875;55.806;38.082;2022-10-16T01:07:20;32.58;;;13.98;;
55989;SDS011;41875;55.806;38.082;2022-10-16T01:10:02;26.50;;;14.32;;
55989;SDS011;41875;55.806;38.082;2022-10-16T01:12:40;27.88;;;15.00;;
55989;SDS011;41875;55.806;38.082;2022-10-16T01:15:16;29.98;;;15.50;;
55989;SDS011;41875;55.806;38.082;2022-10-16T01:17:53;26.35;;;13.40;;
55989;SDS011;41875;55.806;38.082;2022-10-16T01:20:29;28.67;;;14.30;;
55989;SDS011;41875;55.806;38.082;2022-10-16T01:23:02;24.10;;;11.88;;
55989;SDS011;41875;55.806;38.082;2022-10-16T01:25:49;24.15;;;12.90;;
55989;SDS011;41875;55.806;38.082;2022-10-16T01:28:31;25.02;;;11.85;;
55989;SDS011;41875;55.806;38.082;2022-10-16T01:31:06;30.48;;;13.85;;
55989;SDS011;41875;55.806;38.082;2022-10-16T01:33:39;30.73;;;12.20;;
55989;SDS011;41875;55.806;38.082;2022-10-16T01:36:12;24.92;;;11.82;;
55989;SDS011;41875;55.806;38.082;2022-10-16T01:38:44;24.08;;;12.38;;
55989;SDS011;41875;55.806;38.082;2022-10-16T01:41:18;24.92;;;13.32;;
55989;SDS011;41875;55.806;38.082;2022-10-16T01:43:56;22.85;;;11.93;;
55989;SDS011;41875;55.806;38.082;2022-10-16T01:46:28;20.58;;;10.85;;
55989;SDS011;41875;55.806;38.082;2022-10-16T01:49:00;18.00;;;9.30;;
55989;SDS011;41875;55.806;38.082;2022-10-16T01:51:30;22.05;;;11.38;;
55989;SDS011;41875;55.806;38.082;2022-10-16T01:54:00;23.70;;;11.27;;
55989;SDS011;41875;55.806;38.082;2022-10-16T01:56:29;20.25;;;9.98;;
55989;SDS011;41875;55.806;38.082;2022-10-16T01:59:02;27.00;;;12.77;;
55989;SDS011;41875;55.806;38.082;2022-10-16T02:01:35;23.52;;;11.65;;
55989;SDS011;41875;55.806;38.082;2022-10-16T02:04:08;25.55;;;12.45;;
55989;SDS011;41875;55.806;38.082;2022-10-16T02:06:38;19.67;;;10.60;;
55989;SDS011;41875;55.806;38.082;2022-10-16T02:09:07;23.70;;;12.20;;
55989;SDS011;41875;55.806;38.082;2022-10-16T02:11:36;24.90;;;12.57;;
55989;SDS011;41875;55.806;38.082;2022-10-16T02:14:06;24.50;;;11.82;;
55989;SDS011;41875;55.806;38.082;2022-10-16T02:16:36;25.75;;;12.02;;
55989;SDS011;41875;55.806;38.082;2022-10-16T02:19:11;21.77;;;11.25;;
55989;SDS011;41875;55.806;38.082;2022-10-16T02:21:43;22.50;;;11.30;;
55989;SDS011;41875;55.806;38.082;2022-10-16T02:24:18;25.23;;;11.02;;
55989;SDS011;41875;55.806;38.082;2022-10-16T02:26:54;24.45;;;11.30;;
55989;SDS011;41875;55.806;38.082;2022-10-16T02:29:32;19.75;;;9.88;;
55989;SDS011;41875;55.806;38.082;2022-10-16T02:32:07;23.25;;;10.77;;
55989;SDS011;41875;55.806;38.082;2022-10-16T02:34:38;28.02;;;11.68;;
55989;SDS011;41875;55.806;38.082;2022-10-16T02:37:08;25.02;;;10.82;;
55989;SDS011;41875;55.806;38.082;2022-10-16T02:42:09;27.13;;;11.15;;
55989;SDS011;41875;55.806;38.082;2022-10-16T02:44:39;23.98;;;11.07;;
55989;SDS011;41875;55.806;38.082;2022-10-16T02:47:08;25.23;;;11.43;;
55989;SDS011;41875;55.806;38.082;2022-10-16T02:49:37;24.27;;;11.43;;
55989;SDS011;41875;55.806;38.082;2022-10-16T02:52:06;24.05;;;10.88;;
55989;SDS011;41875;55.806;38.082;2022-10-16T02:54:34;22.08;;;9.73;;
55989;SDS011;41875;55.806;38.082;2022-10-16T02:57:07;23.85;;;10.93;;
55989;SDS011;41875;55.806;38.082;2022-10-16T02:59:36;18.85;;;9.50;;
55989;SDS011;41875;55.806;38.082;2022-10-16T03:02:06;22.75;;;9.90;;
55989;SDS011;41875;55.806;38.082;2022-10-16T03:04:34;19.80;;;8.60;;
55989;SDS011;41875;55.806;38.082;2022-10-16T03:07:03;21.60;;;9.48;;
55989;SDS011;41875;55.806;38.082;2022-10-16T03:09:31;19.08;;;7.93;;
55989;SDS011;41875;55.806;38.082;2022-10-16T03:12:00;19.33;;;8.30;;
55989;SDS011;41875;55.806;38.082;2022-10-16T03:14:28;20.52;;;8.65;;
55989;SDS011;41875;55.806;38.082;2022-10-16T03:17:02;19.83;;;9.38;;
55989;SDS011;41875;55.806;38.082;2022-10-16T03:19:32;21.27;;;9.02;;
55989;SDS011;41875;55.806;38.082;2022-10-16T03:22:01;16.25;;;8.68;;
55989;SDS011;41875;55.806;38.082;2022-10-16T03:24:29;20.30;;;8.95;;
55989;SDS011;41875;55.806;38.082;2022-10-16T03:26:58;18.52;;;8.88;;
55989;SDS011;41875;55.806;38.082;2022-10-16T03:31:56;23.60;;;9.60;;
55989;SDS011;41875;55.806;38.082;2022-10-16T03:34:26;18.33;;;8.68;;
55989;SDS011;41875;55.806;38.082;2022-10-16T03:36:59;18.38;;;9.18;;
55989;SDS011;41875;55.806;38.082;2022-10-16T03:39:28;21.88;;;9.13;;
55989;SDS011;41875;55.806;38.082;2022-10-16T03:41:56;18.52;;;8.30;;
55989;SDS011;41875;55.806;38.082;2022-10-16T03:44:25;18.67;;;8.40;;
55989;SDS011;41875;55.806;38.082;2022-10-16T03:46:53;19.63;;;8.57;;
55989;SDS011;41875;55.806;38.082;2022-10-16T03:49:22;18.98;;;8.10;;
55989;SDS011;41875;55.806;38.082;2022-10-16T03:51:50;17.38;;;8.65;;
55989;SDS011;41875;55.806;38.082;2022-10-16T03:54:20;24.55;;;8.45;;
55989;SDS011;41875;55.806;38.082;2022-10-16T03:56:49;15.68;;;7.18;;
55989;SDS011;41875;55.806;38.082;2022-10-16T03:59:18;15.75;;;7.78;;
55989;SDS011;41875;55.806;38.082;2022-10-16T04:01:46;16.55;;;6.95;;
55989;SDS011;41875;55.806;38.082;2022-10-16T04:04:15;14.27;;;7.13;;
55989;SDS011;41875;55.806;38.082;2022-10-16T04:06:43;14.00;;;6.60;;
55989;SDS011;41875;55.806;38.082;2022-10-16T04:09:12;19.15;;;8.70;;
55989;SDS011;41875;55.806;38.082;2022-10-16T04:11:42;14.90;;;7.20;;
55989;SDS011;41875;55.806;38.082;2022-10-16T04:14:11;19.17;;;8.10;;
55989;SDS011;41875;55.806;38.082;2022-10-16T04:16:39;19.23;;;8.43;;
55989;SDS011;41875;55.806;38.082;2022-10-16T04:19:08;17.40;;;8.40;;
55989;SDS011;41875;55.806;38.082;2022-10-16T04:21:37;15.73;;;7.60;;
55989;SDS011;41875;55.806;38.082;2022-10-16T04:24:05;15.07;;;7.38;;
55989;SDS011;41875;55.806;38.082;2022-10-16T04:26:34;18.70;;;8.20;;
55989;SDS011;41875;55.806;38.082;2022-10-16T04:29:06;17.25;;;8.18;;
55989;SDS011;41875;55.806;38.082;2022-10-16T04:31:39;20.08;;;8.18;;
55989;SDS011;41875;55.806;38.082;2022-10-16T04:34:07;17.38;;;8.23;;
55989;SDS011;41875;55.806;38.082;2022-10-16T04:36:36;15.38;;;7.97;;
55989;SDS011;41875;55.806;38.082;2022-10-16T04:39:04;17.33;;;8.82;;
55989;SDS011;41875;55.806;38.082;2022-10-16T04:41:33;17.80;;;8.25;;
55989;SDS011;41875;55.806;38.082;2022-10-16T04:44:01;17.95;;;8.20;;
55989;SDS011;41875;55.806;38.082;2022-10-16T04:46:31;18.35;;;8.50;;
55989;SDS011;41875;55.806;38.082;2022-10-16T04:49:00;19.80;;;8.73;;
55989;SDS011;41875;55.806;38.082;2022-10-16T04:51:28;17.48;;;8.40;;
55989;SDS011;41875;55.806;38.082;2022-10-16T04:53:57;17.80;;;9.18;;
55989;SDS011;41875;55.806;38.082;2022-10-16T04:56:28;16.85;;;7.95;;
55989;SDS011;41875;55.806;38.082;2022-10-16T04:58:56;19.08;;;8.35;;
55989;SDS011;41875;55.806;38.082;2022-10-16T05:01:25;19.98;;;9.02;;
55989;SDS011;41875;55.806;38.082;2022-10-16T05:03:54;16.75;;;8.43;;
55989;SDS011;41875;55.806;38.082;2022-10-16T05:06:23;16.13;;;8.10;;
55989;SDS011;41875;55.806;38.082;2022-10-16T05:08:51;20.23;;;8.75;;
55989;SDS011;41875;55.806;38.082;2022-10-16T05:11:22;21.63;;;9.57;;
55989;SDS011;41875;55.806;38.082;2022-10-16T05:13:51;17.73;;;8.90;;
55989;SDS011;41875;55.806;38.082;2022-10-16T05:16:21;20.10;;;9.68;;
55989;SDS011;41875;55.806;38.082;2022-10-16T05:18:50;29.52;;;14.07;;
55989;SDS011;41875;55.806;38.082;2022-10-16T05:21:31;23.15;;;11.30;;
55989;SDS011;41875;55.806;38.082;2022-10-16T05:23:59;20.50;;;10.27;;
55989;SDS011;41875;55.806;38.082;2022-10-16T05:26:28;20.38;;;10.13;;
55989;SDS011;41875;55.806;38.082;2022-10-16T05:28:56;17.55;;;10.35;;
55989;SDS011;41875;55.806;38.082;2022-10-16T05:31:25;25.38;;;11.27;;
55989;SDS011;41875;55.806;38.082;2022-10-16T05:33:57;24.40;;;11.90;;
55989;SDS011;41875;55.806;38.082;2022-10-16T05:36:27;24.42;;;10.88;;
55989;SDS011;41875;55.806;38.082;2022-10-16T05:39:03;22.15;;;12.23;;
55989;SDS011;41875;55.806;38.082;2022-10-16T05:41:32;22.23;;;11.88;;
55989;SDS011;41875;55.806;38.082;2022-10-16T05:44:03;24.75;;;11.45;;
55989;SDS011;41875;55.806;38.082;2022-10-16T05:46:32;22.08;;;10.90;;
55989;SDS011;41875;55.806;38.082;2022-10-16T05:49:01;40.72;;;18.90;;
55989;SDS011;41875;55.806;38.082;2022-10-16T05:51:30;23.63;;;11.02;;
55989;SDS011;41875;55.806;38.082;2022-10-16T05:53:58;37.33;;;17.00;;
55989;SDS011;41875;55.806;38.082;2022-10-16T05:56:28;27.30;;;12.50;;
55989;SDS011;41875;55.806;38.082;2022-10-16T05:58:57;21.42;;;10.35;;
55989;SDS011;41875;55.806;38.082;2022-10-16T06:01:25;19.27;;;9.77;;
55989;SDS011;41875;55.806;38.082;2022-10-16T06:03:53;21.73;;;9.98;;
55989;SDS011;41875;55.806;38.082;2022-10-16T06:06:23;23.10;;;10.85;;
55989;SDS011;41875;55.806;38.082;2022-10-16T06:08:54;21.15;;;10.65;;
55989;SDS011;41875;55.806;38.082;2022-10-16T06:11:25;20.48;;;10.70;;
55989;SDS011;41875;55.806;38.082;2022-10-16T06:13:58;21.38;;;11.80;;
55989;SDS011;41875;55.806;38.082;2022-10-16T06:16:33;23.65;;;11.65;;
55989;SDS011;41875;55.806;38.082;2022-10-16T06:19:03;18.17;;;10.27;;
55989;SDS011;41875;55.806;38.082;2022-10-16T06:21:33;20.52;;;10.70;;
55989;SDS011;41875;55.806;38.082;2022-10-16T06:26:30;20.00;;;11.20;;
55989;SDS011;41875;55.806;38.082;2022-10-16T06:29:02;22.48;;;11.48;;
55989;SDS011;41875;55.806;38.082;2022-10-16T06:31:31;26.27;;;11.63;;
55989;SDS011;41875;55.806;38.082;2022-10-16T06:34:02;22.75;;;12.02;;
55989;SDS011;41875;55.806;38.082;2022-10-16T06:36:36;21.10;;;11.35;;
55989;SDS011;41875;55.806;38.082;2022-10-16T06:39:05;24.80;;;12.50;;
55989;SDS011;41875;55.806;38.082;2022-10-16T06:44:15;24.45;;;13.00;;
55989;SDS011;41875;55.806;38.082;2022-10-16T06:46:56;26.50;;;13.52;;
55989;SDS011;41875;55.806;38.082;2022-10-16T06:49:27;24.33;;;12.70;;
55989;SDS011;41875;55.806;38.082;2022-10-16T06:51:59;22.88;;;11.10;;
55989;SDS011;41875;55.806;38.082;2022-10-16T06:54:28;23.10;;;11.43;;
55989;SDS011;41875;55.806;38.082;2022-10-16T06:57:07;24.98;;;11.48;;
55989;SDS011;41875;55.806;38.082;2022-10-16T06:59:37;25.20;;;11.25;;
55989;SDS011;41875;55.806;38.082;2022-10-16T07:02:10;24.35;;;11.45;;
55989;SDS011;41875;55.806;38.082;2022-10-16T07:04:39;28.65;;;11.30;;
55989;SDS011;41875;55.806;38.082;2022-10-16T07:07:10;25.60;;;11.48;;
55989;SDS011;41875;55.806;38.082;2022-10-16T07:09:42;26.88;;;11.45;;
55989;SDS011;41875;55.806;38.082;2022-10-16T07:12:10;24.52;;;11.15;;
55989;SDS011;41875;55.806;38.082;2022-10-16T07:14:40;25.63;;;11.85;;
55989;SDS011;41875;55.806;38.082;2022-10-16T07:17:09;32.50;;;11.35;;
55989;SDS011;41875;55.806;38.082;2022-10-16T07:19:37;20.15;;;10.88;;
55989;SDS011;41875;55.806;38.082;2022-10-16T07:22:06;24.98;;;11.57;;
55989;SDS011;41875;55.806;38.082;2022-10-16T07:24:34;27.10;;;11.35;;
55989;SDS011;41875;55.806;38.082;2022-10-16T07:27:03;21.33;;;11.35;;
55989;SDS011;41875;55.806;38.082;2022-10-16T07:29:31;25.27;;;10.98;;
55989;SDS011;41875;55.806;38.082;2022-10-16T07:32:01;27.27;;;12.32;;
55989;SDS011;41875;55.806;38.082;2022-10-16T07:34:30;27.58;;;11.15;;
55989;SDS011;41875;55.806;38.082;2022-10-16T07:36:58;24.38;;;11.05;;
55989;SDS011;41875;55.806;38.082;2022-10-16T07:39:27;26.50;;;12.10;;
55989;SDS011;41875;55.806;38.082;2022-10-16T07:41:55;28.77;;;12.75;;
55989;SDS011;41875;55.806;38.082;2022-10-16T07:44:24;24.08;;;12.52;;
55989;SDS011;41875;55.806;38.082;2022-10-16T07:46:52;25.75;;;11.30;;
55989;SDS011;41875;55.806;38.082;2022-10-16T07:49:22;23.35;;;10.32;;
55989;SDS011;41875;55.806;38.082;2022-10-16T07:51:50;22.67;;;10.15;;
55989;SDS011;41875;55.806;38.082;2022-10-16T07:54:19;21.02;;;9.88;;
55989;SDS011;41875;55.806;38.082;2022-10-16T07:56:47;26.40;;;11.07;;
55989;SDS011;41875;55.806;38.082;2022-10-16T07:59:16;20.67;;;10.48;;
55989;SDS011;41875;55.806;38.082;2022-10-16T08:01:45;17.77;;;9.48;;
55989;SDS011;41875;55.806;38.082;2022-10-16T08:04:14;18.77;;;9.40;;
55989;SDS011;41875;55.806;38.082;2022-10-16T08:09:12;18.40;;;9.00;;
55989;SDS011;41875;55.806;38.082;2022-10-16T08:11:41;20.05;;;8.52;;
55989;SDS011;41875;55.806;38.082;2022-10-16T08:14:10;21.08;;;8.85;;
55989;SDS011;41875;55.806;38.082;2022-10-16T08:16:38;20.75;;;8.25;;
55989;SDS011;41875;55.806;38.082;2022-10-16T08:19:06;16.98;;;7.70;;
55989;SDS011;41875;55.806;38.082;2022-10-16T08:21:35;18.92;;;7.53;;
55989;SDS011;41875;55.806;38.082;2022-10-16T08:24:07;18.55;;;7.88;;
55989;SDS011;41875;55.806;38.082;2022-10-16T08:26:36;19.35;;;7.32;;
55989;SDS011;41875;55.806;38.082;2022-10-16T08:29:04;17.38;;;7.63;;
55989;SDS011;41875;55.806;38.082;2022-10-16T08:31:33;19.83;;;7.95;;
55989;SDS011;41875;55.806;38.082;2022-10-16T08:34:01;16.88;;;7.25;;
55989;SDS011;41875;55.806;38.082;2022-10-16T08:36:30;18.23;;;7.35;;
55989;SDS011;41875;55.806;38.082;2022-10-16T08:38:58;17.10;;;7.18;;
55989;SDS011;41875;55.806;38.082;2022-10-16T08:41:32;18.85;;;7.10;;
55989;SDS011;41875;55.806;38.082;2022-10-16T08:47:13;13.93;;;6.57;;
55989;SDS011;41875;55.806;38.082;2022-10-16T08:49:50;18.63;;;7.38;;
55989;SDS011;41875;55.806;38.082;2022-10-16T08:52:24;16.73;;;6.45;;
55989;SDS011;41875;55.806;38.082;2022-10-16T08:54:57;20.05;;;7.10;;
55989;SDS011;41875;55.806;38.082;2022-10-16T08:57:27;16.30;;;8.30;;
55989;SDS011;41875;55.806;38.082;2022-10-16T08:59:57;15.23;;;7.45;;
55989;SDS011;41875;55.806;38.082;2022-10-16T09:02:32;15.43;;;5.90;;
55989;SDS011;41875;55.806;38.082;2022-10-16T09:05:13;17.48;;;7.07;;
55989;SDS011;41875;55.806;38.082;2022-10-16T09:08:04;12.90;;;6.07;;
55989;SDS011;41875;55.806;38.082;2022-10-16T09:10:41;17.30;;;6.78;;
55989;SDS011;41875;55.806;38.082;2022-10-16T09:13:21;13.50;;;6.05;;
55989;SDS011;41875;55.806;38.082;2022-10-16T09:15:55;11.13;;;5.50;;
55989;SDS011;41875;55.806;38.082;2022-10-16T09:18:33;13.18;;;5.57;;
55989;SDS011;41875;55.806;38.082;2022-10-16T09:21:09;11.40;;;5.13;;
55989;SDS011;41875;55.806;38.082;2022-10-16T09:23:45;12.93;;;5.90;;
55989;SDS011;41875;55.806;38.082;2022-10-16T09:26:18;10.68;;;5.30;;
55989;SDS011;41875;55.806;38.082;2022-10-16T09:28:51;15.52;;;6.45;;
55989;SDS011;41875;55.806;38.082;2022-10-16T09:31:21;14.57;;;6.53;;
55989;SDS011;41875;55.806;38.082;2022-10-16T09:33:52;14.77;;;6.10;;
55989;SDS011;41875;55.806;38.082;2022-10-16T09:36:23;16.67;;;5.53;;
55989;SDS011;41875;55.806;38.082;2022-10-16T09:39:01;18.67;;;6.10;;
55989;SDS011;41875;55.806;38.082;2022-10-16T09:41:33;14.65;;;5.97;;
55989;SDS011;41875;55.806;38.082;2022-10-16T09:44:05;17.13;;;5.63;;
55989;SDS011;41875;55.806;38.082;2022-10-16T09:46:44;14.52;;;5.30;;
55989;SDS011;41875;55.806;38.082;2022-10-16T09:49:19;12.80;;;5.97;;
55989;SDS011;41875;55.806;38.082;2022-10-16T09:51:50;15.32;;;5.20;;
55989;SDS011;41875;55.806;38.082;2022-10-16T09:54:20;14.77;;;5.88;;
55989;SDS011;41875;55.806;38.082;2022-10-16T09:56:49;16.75;;;5.75;;
55989;SDS011;41875;55.806;38.082;2022-10-16T09:59:20;18.85;;;6.00;;
55989;SDS011;41875;55.806;38.082;2022-10-16T10:01:53;13.13;;;5.28;;
55989;SDS011;41875;55.806;38.082;2022-10-16T10:04:23;15.13;;;5.55;;
55989;SDS011;41875;55.806;38.082;2022-10-16T10:06:55;13.75;;;5.50;;
55989;SDS011;41875;55.806;38.082;2022-10-16T10:09:25;13.95;;;5.05;;
55989;SDS011;41875;55.806;38.082;2022-10-16T10:11:55;14.15;;;4.80;;
55989;SDS011;41875;55.806;38.082;2022-10-16T10:14:30;15.13;;;4.20;;
55989;SDS011;41875;55.806;38.082;2022-10-16T10:17:13;11.27;;;4.03;;
55989;SDS011;41875;55.806;38.082;2022-10-16T10:19:46;11.05;;;4.03;;
55989;SDS011;41875;55.806;38.082;2022-10-16T10:22:27;11.65;;;4.00;;
55989;SDS011;41875;55.806;38.082;2022-10-16T10:25:21;7.97;;;3.63;;
55989;SDS011;41875;55.806;38.082;2022-10-16T10:28:10;9.77;;;4.18;;
55989;SDS011;41875;55.806;38.082;2022-10-16T10:30:52;11.35;;;4.80;;
55989;SDS011;41875;55.806;38.082;2022-10-16T10:33:32;13.88;;;4.85;;
55989;SDS011;41875;55.806;38.082;2022-10-16T10:36:13;14.48;;;5.13;;
55989;SDS011;41875;55.806;38.082;2022-10-16T10:38:52;13.75;;;4.32;;
55989;SDS011;41875;55.806;38.082;2022-10-16T10:41:40;13.02;;;4.50;;
55989;SDS011;41875;55.806;38.082;2022-10-16T10:44:27;13.43;;;4.40;;
55989;SDS011;41875;55.806;38.082;2022-10-16T10:47:16;9.45;;;3.50;;
55989;SDS011;41875;55.806;38.082;2022-10-16T10:49:53;14.40;;;3.78;;
55989;SDS011;41875;55.806;38.082;2022-10-16T10:52:32;9.40;;;3.40;;
55989;SDS011;41875;55.806;38.082;2022-10-16T10:55:10;10.13;;;3.55;;
55989;SDS011;41875;55.806;38.082;2022-10-16T10:57:54;10.77;;;3.55;;
55989;SDS011;41875;55.806;38.082;2022-10-16T11:00:37;8.45;;;2.80;;
55989;SDS011;41875;55.806;38.082;2022-10-16T11:03:19;11.18;;;3.00;;
55989;SDS011;41875;55.806;38.082;2022-10-16T11:06:04;9.55;;;3.03;;
55989;SDS011;41875;55.806;38.082;2022-10-16T11:08:36;8.05;;;2.75;;
55989;SDS011;41875;55.806;38.082;2022-10-16T11:11:13;9.20;;;3.08;;
55989;SDS011;41875;55.806;38.082;2022-10-16T11:13:49;8.85;;;3.50;;
55989;SDS011;41875;55.806;38.082;2022-10-16T11:16:26;11.02;;;3.38;;
55989;SDS011;41875;55.806;38.082;2022-10-16T11:18:58;9.73;;;3.00;;
55989;SDS011;41875;55.806;38.082;2022-10-16T11:21:34;10.02;;;3.08;;
55989;SDS011;41875;55.806;38.082;2022-10-16T11:24:09;9.85;;;3.45;;
55989;SDS011;41875;55.806;38.082;2022-10-16T11:26:47;8.70;;;3.10;;
55989;SDS011;41875;55.806;38.082;2022-10-16T11:29:19;7.93;;;3.10;;
55989;SDS011;41875;55.806;38.082;2022-10-16T11:31:57;9.40;;;3.20;;
55989;SDS011;41875;55.806;38.082;2022-10-16T11:34:36;7.82;;;2.88;;
55989;SDS011;41875;55.806;38.082;2022-10-16T11:37:10;11.65;;;2.92;;
55989;SDS011;41875;55.806;38.082;2022-10-16T11:39:44;7.45;;;2.83;;
55989;SDS011;41875;55.806;38.082;2022-10-16T11:42:16;13.15;;;3.20;;
55989;SDS011;41875;55.806;38.082;2022-10-16T11:44:51;11.52;;;3.47;;
55989;SDS011;41875;55.806;38.082;2022-10-16T11:47:31;9.35;;;3.00;;
55989;SDS011;41875;55.806;38.082;2022-10-16T11:50:28;11.20;;;3.20;;
55989;SDS011;41875;55.806;38.082;2022-10-16T11:53:02;8.50;;;3.30;;
55989;SDS011;41875;55.806;38.082;2022-10-16T11:55:38;9.35;;;3.03;;
55989;SDS011;41875;55.806;38.082;2022-10-16T11:58:15;11.45;;;3.80;;
55989;SDS011;41875;55.806;38.082;2022-10-16T12:00:55;9.47;;;3.90;;
55989;SDS011;41875;55.806;38.082;2022-10-16T12:03:30;9.88;;;3.45;;
55989;SDS011;41875;55.806;38.082;2022-10-16T12:06:22;9.70;;;3.20;;
55989;SDS011;41875;55.806;38.082;2022-10-16T12:08:58;11.20;;;3.40;;
55989;SDS011;41875;55.806;38.082;2022-10-16T12:11:32;9.85;;;3.15;;
55989;SDS011;41875;55.806;38.082;2022-10-16T12:14:05;9.40;;;3.40;;
55989;SDS011;41875;55.806;38.082;2022-10-16T12:16:52;10.75;;;3.85;;
55989;SDS011;41875;55.806;38.082;2022-10-16T12:19:23;11.40;;;3.58;;
55989;SDS011;41875;55.806;38.082;2022-10-16T12:21:56;12.43;;;3.92;;
55989;SDS011;41875;55.806;38.082;2022-10-16T12:24:33;9.60;;;3.95;;
55989;SDS011;41875;55.806;38.082;2022-10-16T12:27:06;11.35;;;3.47;;
55989;SDS011;41875;55.806;38.082;2022-10-16T12:29:48;10.00;;;4.25;;
55989;SDS011;41875;55.806;38.082;2022-10-16T12:32:28;13.43;;;3.67;;
55989;SDS011;41875;55.806;38.082;2022-10-16T12:35:17;7.70;;;3.33;;
55989;SDS011;41875;55.806;38.082;2022-10-16T12:37:49;10.85;;;3.10;;
55989;SDS011;41875;55.806;38.082;2022-10-16T12:40:26;11.23;;;3.67;;
55989;SDS011;41875;55.806;38.082;2022-10-16T12:42:57;10.03;;;3.53;;
55989;SDS011;41875;55.806;38.082;2022-10-16T12:45:27;8.05;;;3.03;;
55989;SDS011;41875;55.806;38.082;2022-10-16T12:47:59;6.57;;;3.08;;
55989;SDS011;41875;55.806;38.082;2022-10-16T12:50:31;12.48;;;3.60;;
55989;SDS011;41875;55.806;38.082;2022-10-16T12:53:04;7.95;;;3.40;;
55989;SDS011;41875;55.806;38.082;2022-10-16T12:55:50;9.88;;;3.60;;
55989;SDS011;41875;55.806;38.082;2022-10-16T12:58:28;7.93;;;3.50;;
55989;SDS011;41875;55.806;38.082;2022-10-16T13:01:16;11.23;;;3.30;;
55989;SDS011;41875;55.806;38.082;2022-10-16T13:04:00;8.05;;;3.50;;
55989;SDS011;41875;55.806;38.082;2022-10-16T13:07:03;11.43;;;3.78;;
55989;SDS011;41875;55.806;38.082;2022-10-16T13:09:48;14.02;;;3.75;;
55989;SDS011;41875;55.806;38.082;2022-10-16T13:12:30;11.70;;;3.55;;
55989;SDS011;41875;55.806;38.082;2022-10-16T13:15:22;10.88;;;3.55;;
55989;SDS011;41875;55.806;38.082;2022-10-16T13:18:03;10.07;;;4.00;;
55989;SDS011;41875;55.806;38.082;2022-10-16T13:20:44;12.95;;;4.75;;
55989;SDS011;41875;55.806;38.082;2022-10-16T13:23:25;10.40;;;4.10;;
55989;SDS011;41875;55.806;38.082;2022-10-16T13:26:03;9.27;;;3.65;;
55989;SDS011;41875;55.806;38.082;2022-10-16T13:28:41;12.90;;;4.40;;
55989;SDS011;41875;55.806;38.082;2022-10-16T13:31:13;12.13;;;4.30;;
55989;SDS011;41875;55.806;38.082;2022-10-16T13:33:45;13.60;;;4.15;;
55989;SDS011;41875;55.806;38.082;2022-10-16T13:36:20;9.82;;;4.15;;
55989;SDS011;41875;55.806;38.082;2022-10-16T13:38:59;12.05;;;4.00;;
55989;SDS011;41875;55.806;38.082;2022-10-16T13:41:38;13.77;;;3.70;;
55989;SDS011;41875;55.806;38.082;2022-10-16T13:44:11;9.73;;;3.80;;
55989;SDS011;41875;55.806;38.082;2022-10-16T13:46:43;12.60;;;3.35;;
55989;SDS011;41875;55.806;38.082;2022-10-16T13:49:14;10.98;;;3.85;;
55989;SDS011;41875;55.806;38.082;2022-10-16T13:51:53;13.60;;;4.13;;
55989;SDS011;41875;55.806;38.082;2022-10-16T13:54:25;8.63;;;3.75;;
55989;SDS011;41875;55.806;38.082;2022-10-16T13:57:04;11.63;;;3.70;;
55989;SDS011;41875;55.806;38.082;2022-10-16T13:59:52;11.80;;;4.03;;
55989;SDS011;41875;55.806;38.082;2022-10-16T14:02:22;9.43;;;3.58;;
55989;SDS011;41875;55.806;38.082;2022-10-16T14:04:56;7.32;;;3.35;;
55989;SDS011;41875;55.806;38.082;2022-10-16T14:07:27;10.30;;;4.13;;
55989;SDS011;41875;55.806;38.082;2022-10-16T14:10:00;9.70;;;4.03;;
55989;SDS011;41875;55.806;38.082;2022-10-16T14:12:34;11.57;;;4.28;;
55989;SDS011;41875;55.806;38.082;2022-10-16T14:15:15;9.57;;;3.90;;
55989;SDS011;41875;55.806;38.082;2022-10-16T14:17:47;13.93;;;4.35;;
55989;SDS011;41875;55.806;38.082;2022-10-16T14:20:20;11.13;;;4.00;;
55989;SDS011;41875;55.806;38.082;2022-10-16T14:23:00;10.65;;;3.92;;
55989;SDS011;41875;55.806;38.082;2022-10-16T14:25:30;11.63;;;3.75;;
55989;SDS011;41875;55.806;38.082;2022-10-16T14:28:02;11.82;;;4.43;;
55989;SDS011;41875;55.806;38.082;2022-10-16T14:30:48;12.30;;;4.63;;
55989;SDS011;41875;55.806;38.082;2022-10-16T14:33:31;12.55;;;4.70;;
55989;SDS011;41875;55.806;38.082;2022-10-16T14:36:05;11.85;;;4.35;;
55989;SDS011;41875;55.806;38.082;2022-10-16T14:38:40;11.40;;;4.82;;
55989;SDS011;41875;55.806;38.082;2022-10-16T14:41:11;13.82;;;5.88;;
55989;SDS011;41875;55.806;38.082;2022-10-16T14:43:49;16.17;;;5.50;;
55989;SDS011;41875;55.806;38.082;2022-10-16T14:46:21;17.55;;;5.28;;
55989;SDS011;41875;55.806;38.082;2022-10-16T14:49:00;13.52;;;5.10;;
55989;SDS011;41875;55.806;38.082;2022-10-16T14:51:32;12.68;;;4.95;;
55989;SDS011;41875;55.806;38.082;2022-10-16T14:54:00;16.77;;;5.85;;
55989;SDS011;41875;55.806;38.082;2022-10-16T14:56:33;13.15;;;5.97;;
55989;SDS011;41875;55.806;38.082;2022-10-16T14:59:18;14.05;;;6.03;;
55989;SDS011;41875;55.806;38.082;2022-10-16T15:01:51;14.00;;;5.05;;
55989;SDS011;41875;55.806;38.082;2022-10-16T15:06:48;12.32;;;5.20;;
55989;SDS011;41875;55.806;38.082;2022-10-16T15:09:18;12.60;;;5.28;;
55989;SDS011;41875;55.806;38.082;2022-10-16T15:11:47;14.38;;;5.30;;
55989;SDS011;41875;55.806;38.082;2022-10-16T15:14:17;15.77;;;5.95;;
55989;SDS011;41875;55.806;38.082;2022-10-16T15:16:46;12.70;;;5.13;;